Airfield :
LOGIN :

Register | Disclaimer

   EN    FR    IT 

 










Legend :    VFR   Marginal VFR   IFR   Intensive IFR   Very Intensive IFR
Visi :
Ceiling :
>= 8 km
>= 3000ft
5 to 8 km
1000 to 3000 ft
1500m to 5 km
500 to 1000 ft
800 to 1500m
200 to 500 ft
< 800m
< 200 ft
Symbols :   Thunderstorms  Fog  Heavy snow  Heavy precipitations  Wind > 20 kt
SIGMETs :     Misc.  Thunderstorms  Icing  Turbulence  Mountain Waves  Volcanic Ashes






- Airport Elevation : 297 ft
- IATA code : ODB


LEBA - Córdoba

CURRENT METAR :
  • 270200Z AUTO VRB01KT 0900 FG BKN015 05/05 Q1027

EXPIRED METARs :
  • 270130Z AUTO 03002KT 0300 R21/0350U FG SCT016 04/04 Q1027
  • 270100Z AUTO 02001KT 0300 R21/0275N FG FEW011 04/04 Q1027
  • 270030Z AUTO VRB01KT 0450 R21/0275N FG FEW011 05/04 Q1027
  • 270000Z AUTO 10002KT 0750 R21/0700D FG VV/// 06/05 Q1027
  • 262330Z AUTO 08002KT 0550 FG VV/// 05/05 Q1028

Expired Forecast.



MET'MAP, your aeronautical weather chart ! - Copyright ORBIFLY December 2007 - Disclaimer

ORBIFLY MET'MAP TEAM :

Programming & Development : Alexandra Zaïnal
Concept & original design : Baudouin d'Aumeries
Assistance for programming : Marc-Olivier Méhu
Technical & hardware support : Manuel Goepfert

Contact : metmap@orbifly.com




SOURCES & CREDITS :

   NOAA